sensor_id;sensor_type;location;lat;lon;timestamp;temperature;humidity
69677;DHT22;56914;51.058;9.326;2022-09-30T00:01:44;9.70;59.30
69677;DHT22;56914;51.058;9.326;2022-09-30T00:04:35;9.70;59.30
69677;DHT22;56914;51.058;9.326;2022-09-30T00:10:33;9.90;60.00
69677;DHT22;56914;51.058;9.326;2022-09-30T00:13:03;10.00;59.50
69677;DHT22;56914;51.058;9.326;2022-09-30T00:15:31;10.00;59.60
69677;DHT22;56914;51.058;9.326;2022-09-30T00:17:58;10.00;59.80
69677;DHT22;56914;51.058;9.326;2022-09-30T00:20:26;10.10;59.80
69677;DHT22;56914;51.058;9.326;2022-09-30T00:22:54;10.10;60.00
69677;DHT22;56914;51.058;9.326;2022-09-30T00:25:22;10.10;60.10
69677;DHT22;56914;51.058;9.326;2022-09-30T00:27:51;10.20;60.10
69677;DHT22;56914;51.058;9.326;2022-09-30T00:30:19;10.30;60.10
69677;DHT22;56914;51.058;9.326;2022-09-30T00:32:47;10.40;60.00
69677;DHT22;56914;51.058;9.326;2022-09-30T00:35:15;10.50;60.10
69677;DHT22;56914;51.058;9.326;2022-09-30T00:37:48;10.40;60.40
69677;DHT22;56914;51.058;9.326;2022-09-30T00:40:19;10.40;60.70
69677;DHT22;56914;51.058;9.326;2022-09-30T00:42:47;10.50;60.80
69677;DHT22;56914;51.058;9.326;2022-09-30T00:45:16;10.50;60.90
69677;DHT22;56914;51.058;9.326;2022-09-30T00:47:45;10.50;61.00
69677;DHT22;56914;51.058;9.326;2022-09-30T00:50:18;10.60;61.00
69677;DHT22;56914;51.058;9.326;2022-09-30T00:52:47;10.70;60.90
69677;DHT22;56914;51.058;9.326;2022-09-30T00:55:21;10.70;60.70
69677;DHT22;56914;51.058;9.326;2022-09-30T00:57:49;10.70;60.70
69677;DHT22;56914;51.058;9.326;2022-09-30T01:00:19;10.60;60.70
69677;DHT22;56914;51.058;9.326;2022-09-30T01:02:49;10.60;60.70
69677;DHT22;56914;51.058;9.326;2022-09-30T01:05:17;10.50;60.70
69677;DHT22;56914;51.058;9.326;2022-09-30T01:07:47;10.50;60.70
69677;DHT22;56914;51.058;9.326;2022-09-30T01:10:15;10.50;60.80
69677;DHT22;56914;51.058;9.326;2022-09-30T01:12:43;10.40;60.80
69677;DHT22;56914;51.058;9.326;2022-09-30T01:15:11;10.50;60.80
69677;DHT22;56914;51.058;9.326;2022-09-30T01:17:43;10.50;60.80
69677;DHT22;56914;51.058;9.326;2022-09-30T01:20:25;10.50;60.80
69677;DHT22;56914;51.058;9.326;2022-09-30T01:23:03;10.40;60.80
69677;DHT22;56914;51.058;9.326;2022-09-30T01:28:29;10.40;60.70
69677;DHT22;56914;51.058;9.326;2022-09-30T01:31:03;10.50;60.70
69677;DHT22;56914;51.058;9.326;2022-09-30T01:33:37;10.50;60.60
69677;DHT22;56914;51.058;9.326;2022-09-30T01:36:12;10.40;60.50
69677;DHT22;56914;51.058;9.326;2022-09-30T01:38:46;10.40;60.40
69677;DHT22;56914;51.058;9.326;2022-09-30T01:41:18;10.40;60.30
69677;DHT22;56914;51.058;9.326;2022-09-30T01:43:50;10.30;60.30
69677;DHT22;56914;51.058;9.326;2022-09-30T01:46:25;10.20;60.40
69677;DHT22;56914;51.058;9.326;2022-09-30T01:48:58;10.20;60.40
69677;DHT22;56914;51.058;9.326;2022-09-30T01:51:28;10.10;60.30
69677;DHT22;56914;51.058;9.326;2022-09-30T01:53:58;10.10;60.50
69677;DHT22;56914;51.058;9.326;2022-09-30T01:56:31;10.00;60.40
69677;DHT22;56914;51.058;9.326;2022-09-30T01:59:03;10.00;60.60
69677;DHT22;56914;51.058;9.326;2022-09-30T02:01:34;9.90;60.90
69677;DHT22;56914;51.058;9.326;2022-09-30T02:04:06;9.90;61.00
69677;DHT22;56914;51.058;9.326;2022-09-30T02:06:36;9.90;61.00
69677;DHT22;56914;51.058;9.326;2022-09-30T02:09:05;9.90;61.10
69677;DHT22;56914;51.058;9.326;2022-09-30T02:11:35;9.90;61.10
69677;DHT22;56914;51.058;9.326;2022-09-30T02:14:05;9.80;61.10
69677;DHT22;56914;51.058;9.326;2022-09-30T02:16:36;9.80;60.90
69677;DHT22;56914;51.058;9.326;2022-09-30T02:19:08;9.80;61.00
69677;DHT22;56914;51.058;9.326;2022-09-30T02:21:39;9.90;61.00
69677;DHT22;56914;51.058;9.326;2022-09-30T02:24:09;10.00;61.00
69677;DHT22;56914;51.058;9.326;2022-09-30T02:26:40;10.00;61.10
69677;DHT22;56914;51.058;9.326;2022-09-30T02:29:09;10.10;61.10
69677;DHT22;56914;51.058;9.326;2022-09-30T02:31:41;10.20;61.00
69677;DHT22;56914;51.058;9.326;2022-09-30T02:34:10;10.30;60.90
69677;DHT22;56914;51.058;9.326;2022-09-30T02:36:41;10.40;60.80
69677;DHT22;56914;51.058;9.326;2022-09-30T02:39:12;10.30;60.90
69677;DHT22;56914;51.058;9.326;2022-09-30T02:41:42;10.30;61.20
69677;DHT22;56914;51.058;9.326;2022-09-30T02:44:11;10.40;61.20
69677;DHT22;56914;51.058;9.326;2022-09-30T02:46:42;10.40;61.00
69677;DHT22;56914;51.058;9.326;2022-09-30T02:49:14;10.40;61.20
69677;DHT22;56914;51.058;9.326;2022-09-30T02:51:44;10.40;61.10
69677;DHT22;56914;51.058;9.326;2022-09-30T02:54:18;10.50;61.00
69677;DHT22;56914;51.058;9.326;2022-09-30T02:56:52;10.50;60.90
69677;DHT22;56914;51.058;9.326;2022-09-30T02:59:20;10.60;61.00
69677;DHT22;56914;51.058;9.326;2022-09-30T03:01:50;10.60;60.80
69677;DHT22;56914;51.058;9.326;2022-09-30T03:04:18;10.70;60.80
69677;DHT22;56914;51.058;9.326;2022-09-30T03:06:49;10.70;60.90
69677;DHT22;56914;51.058;9.326;2022-09-30T03:09:23;10.70;60.80
69677;DHT22;56914;51.058;9.326;2022-09-30T03:11:51;10.80;60.80
69677;DHT22;56914;51.058;9.326;2022-09-30T03:14:27;10.80;60.70
69677;DHT22;56914;51.058;9.326;2022-09-30T03:19:56;10.70;61.60
69677;DHT22;56914;51.058;9.326;2022-09-30T03:22:50;10.70;60.90
69677;DHT22;56914;51.058;9.326;2022-09-30T03:25:27;10.70;60.90
69677;DHT22;56914;51.058;9.326;2022-09-30T03:28:01;10.70;60.90
69677;DHT22;56914;51.058;9.326;2022-09-30T03:30:35;10.60;61.10
69677;DHT22;56914;51.058;9.326;2022-09-30T03:33:07;10.60;61.20
69677;DHT22;56914;51.058;9.326;2022-09-30T03:35:42;10.40;61.30
69677;DHT22;56914;51.058;9.326;2022-09-30T03:38:12;10.40;61.50
69677;DHT22;56914;51.058;9.326;2022-09-30T03:40:42;10.50;61.40
69677;DHT22;56914;51.058;9.326;2022-09-30T03:43:17;10.60;61.20
69677;DHT22;56914;51.058;9.326;2022-09-30T03:45:47;10.50;61.10
69677;DHT22;56914;51.058;9.326;2022-09-30T03:48:17;10.50;61.30
69677;DHT22;56914;51.058;9.326;2022-09-30T03:50:47;10.50;61.40
69677;DHT22;56914;51.058;9.326;2022-09-30T03:53:15;10.50;61.30
69677;DHT22;56914;51.058;9.326;2022-09-30T03:55:50;10.50;61.20
69677;DHT22;56914;51.058;9.326;2022-09-30T03:58:20;10.50;61.20
69677;DHT22;56914;51.058;9.326;2022-09-30T04:00:49;10.60;61.20
69677;DHT22;56914;51.058;9.326;2022-09-30T04:03:18;10.60;61.10
69677;DHT22;56914;51.058;9.326;2022-09-30T04:05:48;10.60;61.00
69677;DHT22;56914;51.058;9.326;2022-09-30T04:08:16;10.50;61.20
69677;DHT22;56914;51.058;9.326;2022-09-30T04:10:44;10.50;61.20
69677;DHT22;56914;51.058;9.326;2022-09-30T04:13:12;10.40;61.40
69677;DHT22;56914;51.058;9.326;2022-09-30T04:15:40;10.50;61.40
69677;DHT22;56914;51.058;9.326;2022-09-30T04:18:08;10.60;61.80
69677;DHT22;56914;51.058;9.326;2022-09-30T04:20:36;10.50;61.20
69677;DHT22;56914;51.058;9.326;2022-09-30T04:23:06;10.50;61.10
69677;DHT22;56914;51.058;9.326;2022-09-30T04:25:34;10.60;61.00
69677;DHT22;56914;51.058;9.326;2022-09-30T04:28:02;10.60;60.80
69677;DHT22;56914;51.058;9.326;2022-09-30T04:30:29;10.50;60.90
69677;DHT22;56914;51.058;9.326;2022-09-30T04:32:59;10.40;61.20
69677;DHT22;56914;51.058;9.326;2022-09-30T04:35:27;10.30;61.20
69677;DHT22;56914;51.058;9.326;2022-09-30T04:37:55;10.30;61.10
69677;DHT22;56914;51.058;9.326;2022-09-30T04:40:28;10.30;61.10
69677;DHT22;56914;51.058;9.326;2022-09-30T04:42:56;10.20;61.20
69677;DHT22;56914;51.058;9.326;2022-09-30T04:45:23;10.20;61.20
69677;DHT22;56914;51.058;9.326;2022-09-30T04:47:52;10.00;61.50
69677;DHT22;56914;51.058;9.326;2022-09-30T04:50:20;10.10;61.60
69677;DHT22;56914;51.058;9.326;2022-09-30T04:52:48;10.00;61.50
69677;DHT22;56914;51.058;9.326;2022-09-30T04:55:16;10.00;61.50
69677;DHT22;56914;51.058;9.326;2022-09-30T04:57:45;10.00;61.60
69677;DHT22;56914;51.058;9.326;2022-09-30T05:00:13;9.90;61.60
69677;DHT22;56914;51.058;9.326;2022-09-30T05:02:44;9.90;61.60
69677;DHT22;56914;51.058;9.326;2022-09-30T05:05:12;9.90;61.60
69677;DHT22;56914;51.058;9.326;2022-09-30T05:07:40;9.90;61.60
69677;DHT22;56914;51.058;9.326;2022-09-30T05:10:08;9.90;61.70
69677;DHT22;56914;51.058;9.326;2022-09-30T05:12:36;9.80;61.90
69677;DHT22;56914;51.058;9.326;2022-09-30T05:15:06;9.90;61.90
69677;DHT22;56914;51.058;9.326;2022-09-30T05:17:34;9.90;61.80
69677;DHT22;56914;51.058;9.326;2022-09-30T05:20:02;10.00;61.70
69677;DHT22;56914;51.058;9.326;2022-09-30T05:22:30;9.90;61.90
69677;DHT22;56914;51.058;9.326;2022-09-30T05:24:58;9.90;62.00
69677;DHT22;56914;51.058;9.326;2022-09-30T05:27:28;9.80;62.20
69677;DHT22;56914;51.058;9.326;2022-09-30T05:29:56;9.90;62.20
69677;DHT22;56914;51.058;9.326;2022-09-30T05:32:25;9.90;62.00
69677;DHT22;56914;51.058;9.326;2022-09-30T05:34:53;10.00;61.90
69677;DHT22;56914;51.058;9.326;2022-09-30T05:37:21;10.00;61.80
69677;DHT22;56914;51.058;9.326;2022-09-30T05:39:49;9.90;61.90
69677;DHT22;56914;51.058;9.326;2022-09-30T05:42:17;9.90;62.10
69677;DHT22;56914;51.058;9.326;2022-09-30T05:44:45;9.90;62.10
69677;DHT22;56914;51.058;9.326;2022-09-30T05:47:13;10.00;62.60
69677;DHT22;56914;51.058;9.326;2022-09-30T05:49:43;10.10;61.80
69677;DHT22;56914;51.058;9.326;2022-09-30T05:52:14;10.10;61.60
69677;DHT22;56914;51.058;9.326;2022-09-30T05:54:42;10.10;61.60
69677;DHT22;56914;51.058;9.326;2022-09-30T05:57:10;9.90;61.80
69677;DHT22;56914;51.058;9.326;2022-09-30T05:59:39;9.80;62.20
69677;DHT22;56914;51.058;9.326;2022-09-30T06:02:09;9.70;62.60
69677;DHT22;56914;51.058;9.326;2022-09-30T06:04:39;9.60;62.60
69677;DHT22;56914;51.058;9.326;2022-09-30T06:07:09;9.60;62.50
69677;DHT22;56914;51.058;9.326;2022-09-30T06:09:37;9.60;62.50
69677;DHT22;56914;51.058;9.326;2022-09-30T06:12:06;9.70;62.40
69677;DHT22;56914;51.058;9.326;2022-09-30T06:14:34;9.60;62.50
69677;DHT22;56914;51.058;9.326;2022-09-30T06:17:02;9.60;62.70
69677;DHT22;56914;51.058;9.326;2022-09-30T06:19:32;9.60;62.80
69677;DHT22;56914;51.058;9.326;2022-09-30T06:22:16;9.70;62.80
69677;DHT22;56914;51.058;9.326;2022-09-30T06:24:44;9.80;62.50
69677;DHT22;56914;51.058;9.326;2022-09-30T06:27:18;9.90;62.40
69677;DHT22;56914;51.058;9.326;2022-09-30T06:29:46;9.90;62.30
69677;DHT22;56914;51.058;9.326;2022-09-30T06:32:14;9.90;62.30
69677;DHT22;56914;51.058;9.326;2022-09-30T06:34:42;9.90;62.10
69677;DHT22;56914;51.058;9.326;2022-09-30T06:37:10;9.90;62.00
69677;DHT22;56914;51.058;9.326;2022-09-30T06:42:26;10.00;62.10
69677;DHT22;56914;51.058;9.326;2022-09-30T06:44:56;10.10;61.90
69677;DHT22;56914;51.058;9.326;2022-09-30T06:47:26;10.00;61.50
69677;DHT22;56914;51.058;9.326;2022-09-30T06:49:54;10.00;61.60
69677;DHT22;56914;51.058;9.326;2022-09-30T06:52:29;10.10;61.60
69677;DHT22;56914;51.058;9.326;2022-09-30T06:54:57;10.20;61.60
69677;DHT22;56914;51.058;9.326;2022-09-30T06:57:26;10.20;61.30
69677;DHT22;56914;51.058;9.326;2022-09-30T06:59:54;10.20;61.20
69677;DHT22;56914;51.058;9.326;2022-09-30T07:02:22;10.30;61.50
69677;DHT22;56914;51.058;9.326;2022-09-30T07:04:50;10.40;61.50
69677;DHT22;56914;51.058;9.326;2022-09-30T07:07:18;10.40;61.50
69677;DHT22;56914;51.058;9.326;2022-09-30T07:09:47;10.60;61.40
69677;DHT22;56914;51.058;9.326;2022-09-30T07:12:15;10.60;61.10
69677;DHT22;56914;51.058;9.326;2022-09-30T07:14:48;10.60;61.10
69677;DHT22;56914;51.058;9.326;2022-09-30T07:17:16;10.70;61.10
69677;DHT22;56914;51.058;9.326;2022-09-30T07:19:44;10.70;61.20
69677;DHT22;56914;51.058;9.326;2022-09-30T07:22:12;10.90;61.00
69677;DHT22;56914;51.058;9.326;2022-09-30T07:24:58;10.90;61.00
69677;DHT22;56914;51.058;9.326;2022-09-30T07:27:31;11.10;61.10
69677;DHT22;56914;51.058;9.326;2022-09-30T07:30:05;11.10;61.10
69677;DHT22;56914;51.058;9.326;2022-09-30T07:32:40;11.10;61.10
69677;DHT22;56914;51.058;9.326;2022-09-30T07:35:08;11.10;61.20
69677;DHT22;56914;51.058;9.326;2022-09-30T07:37:36;11.30;61.20
69677;DHT22;56914;51.058;9.326;2022-09-30T07:40:05;11.40;60.80
69677;DHT22;56914;51.058;9.326;2022-09-30T07:42:36;11.40;60.70
69677;DHT22;56914;51.058;9.326;2022-09-30T07:45:07;11.30;60.70
69677;DHT22;56914;51.058;9.326;2022-09-30T07:47:38;11.20;61.20
69677;DHT22;56914;51.058;9.326;2022-09-30T07:50:06;11.20;61.50
69677;DHT22;56914;51.058;9.326;2022-09-30T07:52:36;11.20;61.60
69677;DHT22;56914;51.058;9.326;2022-09-30T07:55:04;11.20;61.70
69677;DHT22;56914;51.058;9.326;2022-09-30T07:57:32;11.30;62.10
69677;DHT22;56914;51.058;9.326;2022-09-30T08:00:00;11.40;62.10
69677;DHT22;56914;51.058;9.326;2022-09-30T08:06:03;11.60;61.70
69677;DHT22;56914;51.058;9.326;2022-09-30T08:08:34;11.70;61.70
69677;DHT22;56914;51.058;9.326;2022-09-30T08:11:03;11.80;61.50
69677;DHT22;56914;51.058;9.326;2022-09-30T08:13:34;11.90;61.60
69677;DHT22;56914;51.058;9.326;2022-09-30T08:16:02;12.00;61.20
69677;DHT22;56914;51.058;9.326;2022-09-30T08:18:52;12.10;61.20
69677;DHT22;56914;51.058;9.326;2022-09-30T08:21:21;12.30;60.80
69677;DHT22;56914;51.058;9.326;2022-09-30T08:23:49;12.30;60.50
69677;DHT22;56914;51.058;9.326;2022-09-30T08:26:17;12.30;60.80
69677;DHT22;56914;51.058;9.326;2022-09-30T08:28:45;12.20;61.20
69677;DHT22;56914;51.058;9.326;2022-09-30T08:31:14;12.20;61.50
69677;DHT22;56914;51.058;9.326;2022-09-30T08:33:42;12.30;61.30
69677;DHT22;56914;51.058;9.326;2022-09-30T08:36:11;12.40;61.00
69677;DHT22;56914;51.058;9.326;2022-09-30T08:38:41;12.50;60.70
69677;DHT22;56914;51.058;9.326;2022-09-30T08:43:58;12.90;60.80
69677;DHT22;56914;51.058;9.326;2022-09-30T08:46:33;13.00;60.80
69677;DHT22;56914;51.058;9.326;2022-09-30T08:49:08;13.10;60.60
69677;DHT22;56914;51.058;9.326;2022-09-30T08:51:41;13.20;60.70
69677;DHT22;56914;51.058;9.326;2022-09-30T08:54:13;13.30;60.40
69677;DHT22;56914;51.058;9.326;2022-09-30T08:56:41;13.30;59.90
69677;DHT22;56914;51.058;9.326;2022-09-30T08:59:14;13.30;59.90
69677;DHT22;56914;51.058;9.326;2022-09-30T09:01:48;13.30;59.80
69677;DHT22;56914;51.058;9.326;2022-09-30T09:04:20;13.30;59.40
69677;DHT22;56914;51.058;9.326;2022-09-30T09:06:49;13.40;59.60
69677;DHT22;56914;51.058;9.326;2022-09-30T09:09:36;13.50;59.70
69677;DHT22;56914;51.058;9.326;2022-09-30T09:12:10;13.60;59.90
69677;DHT22;56914;51.058;9.326;2022-09-30T09:14:45;13.70;59.40
69677;DHT22;56914;51.058;9.326;2022-09-30T09:17:24;13.80;59.40
69677;DHT22;56914;51.058;9.326;2022-09-30T09:19:58;14.00;59.20
69677;DHT22;56914;51.058;9.326;2022-09-30T09:22:30;14.30;58.70
69677;DHT22;56914;51.058;9.326;2022-09-30T09:25:00;14.60;58.10
69677;DHT22;56914;51.058;9.326;2022-09-30T09:27:29;14.70;57.60
69677;DHT22;56914;51.058;9.326;2022-09-30T09:30:03;14.90;57.50
69677;DHT22;56914;51.058;9.326;2022-09-30T09:32:33;15.10;57.20
69677;DHT22;56914;51.058;9.326;2022-09-30T09:35:05;15.40;57.20
69677;DHT22;56914;51.058;9.326;2022-09-30T09:37:37;15.60;56.80
69677;DHT22;56914;51.058;9.326;2022-09-30T09:40:28;15.70;56.30
69677;DHT22;56914;51.058;9.326;2022-09-30T09:43:05;15.70;56.10
69677;DHT22;56914;51.058;9.326;2022-09-30T09:45:39;15.70;56.60
69677;DHT22;56914;51.058;9.326;2022-09-30T09:48:09;15.70;56.70
69677;DHT22;56914;51.058;9.326;2022-09-30T09:50:40;16.00;56.30
69677;DHT22;56914;51.058;9.326;2022-09-30T09:53:12;16.00;55.80
69677;DHT22;56914;51.058;9.326;2022-09-30T09:55:46;16.10;55.90
69677;DHT22;56914;51.058;9.326;2022-09-30T09:58:14;16.40;55.60
69677;DHT22;56914;51.058;9.326;2022-09-30T10:00:43;16.60;55.60
69677;DHT22;56914;51.058;9.326;2022-09-30T10:03:41;16.80;55.40
69677;DHT22;56914;51.058;9.326;2022-09-30T10:06:09;17.00;55.10
69677;DHT22;56914;51.058;9.326;2022-09-30T10:08:52;17.00;55.10
69677;DHT22;56914;51.058;9.326;2022-09-30T10:11:22;16.90;55.40
69677;DHT22;56914;51.058;9.326;2022-09-30T10:13:50;16.70;56.30
69677;DHT22;56914;51.058;9.326;2022-09-30T10:16:24;16.90;56.20
69677;DHT22;56914;51.058;9.326;2022-09-30T10:18:56;16.90;55.40
69677;DHT22;56914;51.058;9.326;2022-09-30T10:21:25;17.00;55.20
69677;DHT22;56914;51.058;9.326;2022-09-30T10:23:53;17.10;55.50
69677;DHT22;56914;51.058;9.326;2022-09-30T10:26:25;17.20;55.50
69677;DHT22;56914;51.058;9.326;2022-09-30T10:28:56;17.30;55.20
69677;DHT22;56914;51.058;9.326;2022-09-30T10:31:24;17.40;55.40
69677;DHT22;56914;51.058;9.326;2022-09-30T10:33:56;17.50;55.50
69677;DHT22;56914;51.058;9.326;2022-09-30T10:36:30;17.70;55.10
69677;DHT22;56914;51.058;9.326;2022-09-30T10:39:04;18.00;54.70
69677;DHT22;56914;51.058;9.326;2022-09-30T10:41:34;18.20;54.50
69677;DHT22;56914;51.058;9.326;2022-09-30T10:44:04;18.50;53.90
69677;DHT22;56914;51.058;9.326;2022-09-30T10:46:34;18.60;53.10
69677;DHT22;56914;51.058;9.326;2022-09-30T10:49:06;18.70;53.20
69677;DHT22;56914;51.058;9.326;2022-09-30T10:51:35;18.80;53.50
69677;DHT22;56914;51.058;9.326;2022-09-30T10:54:05;19.00;53.20
69677;DHT22;56914;51.058;9.326;2022-09-30T10:56:42;19.10;53.30
69677;DHT22;56914;51.058;9.326;2022-09-30T11:01:56;19.40;53.00
69677;DHT22;56914;51.058;9.326;2022-09-30T11:04:32;19.60;53.20
69677;DHT22;56914;51.058;9.326;2022-09-30T11:07:10;19.80;53.20
69677;DHT22;56914;51.058;9.326;2022-09-30T11:09:43;19.90;53.80
69677;DHT22;56914;51.058;9.326;2022-09-30T11:12:16;20.10;53.10
69677;DHT22;56914;51.058;9.326;2022-09-30T11:14:47;20.30;52.00
69677;DHT22;56914;51.058;9.326;2022-09-30T11:17:23;20.50;51.80
69677;DHT22;56914;51.058;9.326;2022-09-30T11:19:57;20.70;51.30
69677;DHT22;56914;51.058;9.326;2022-09-30T11:22:32;21.00;50.40
69677;DHT22;56914;51.058;9.326;2022-09-30T11:25:02;21.10;49.90
69677;DHT22;56914;51.058;9.326;2022-09-30T11:27:41;21.20;48.90
69677;DHT22;56914;51.058;9.326;2022-09-30T11:30:11;21.20;48.10
69677;DHT22;56914;51.058;9.326;2022-09-30T11:32:45;21.20;48.30
69677;DHT22;56914;51.058;9.326;2022-09-30T11:35:22;21.30;47.80
69677;DHT22;56914;51.058;9.326;2022-09-30T11:37:57;21.50;47.60
69677;DHT22;56914;51.058;9.326;2022-09-30T11:40:29;21.70;47.20
69677;DHT22;56914;51.058;9.326;2022-09-30T11:43:02;21.80;46.60
69677;DHT22;56914;51.058;9.326;2022-09-30T11:45:37;21.90;46.50
69677;DHT22;56914;51.058;9.326;2022-09-30T11:48:14;22.00;46.30
69677;DHT22;56914;51.058;9.326;2022-09-30T11:50:47;22.30;45.80
69677;DHT22;56914;51.058;9.326;2022-09-30T11:53:19;22.50;45.00
69677;DHT22;56914;51.058;9.326;2022-09-30T11:58:35;22.20;44.90
69677;DHT22;56914;51.058;9.326;2022-09-30T12:01:13;22.20;44.70
69677;DHT22;56914;51.058;9.326;2022-09-30T12:03:43;22.30;44.30
69677;DHT22;56914;51.058;9.326;2022-09-30T12:06:13;22.50;44.40
69677;DHT22;56914;51.058;9.326;2022-09-30T12:08:43;22.80;44.00
69677;DHT22;56914;51.058;9.326;2022-09-30T12:11:16;22.90;43.40
69677;DHT22;56914;51.058;9.326;2022-09-30T12:13:47;22.90;43.10
69677;DHT22;56914;51.058;9.326;2022-09-30T12:16:17;22.90;43.00
69677;DHT22;56914;51.058;9.326;2022-09-30T12:18:47;22.90;42.70
69677;DHT22;56914;51.058;9.326;2022-09-30T12:24:36;23.10;41.50
69677;DHT22;56914;51.058;9.326;2022-09-30T12:27:11;23.20;41.30
69677;DHT22;56914;51.058;9.326;2022-09-30T12:29:42;23.40;40.80
69677;DHT22;56914;51.058;9.326;2022-09-30T12:32:35;23.40;40.20
69677;DHT22;56914;51.058;9.326;2022-09-30T12:38:47;23.40;39.80
69677;DHT22;56914;51.058;9.326;2022-09-30T12:41:24;23.20;39.90
69677;DHT22;56914;51.058;9.326;2022-09-30T12:46:47;23.20;38.40
69677;DHT22;56914;51.058;9.326;2022-09-30T12:49:18;23.10;38.50
69677;DHT22;56914;51.058;9.326;2022-09-30T12:51:49;23.20;38.70
69677;DHT22;56914;51.058;9.326;2022-09-30T12:54:20;23.30;38.90
69677;DHT22;56914;51.058;9.326;2022-09-30T12:56:52;23.50;38.40
69677;DHT22;56914;51.058;9.326;2022-09-30T12:59:23;23.40;38.20
69677;DHT22;56914;51.058;9.326;2022-09-30T13:01:53;23.50;38.60
69677;DHT22;56914;51.058;9.326;2022-09-30T13:04:30;23.40;38.50
69677;DHT22;56914;51.058;9.326;2022-09-30T13:07:15;23.40;38.30
69677;DHT22;56914;51.058;9.326;2022-09-30T13:12:40;22.90;38.60
69677;DHT22;56914;51.058;9.326;2022-09-30T13:15:21;22.80;38.80
69677;DHT22;56914;51.058;9.326;2022-09-30T13:17:51;22.70;38.70
69677;DHT22;56914;51.058;9.326;2022-09-30T13:23:05;22.90;39.30
69677;DHT22;56914;51.058;9.326;2022-09-30T13:25:51;22.90;38.20
69677;DHT22;56914;51.058;9.326;2022-09-30T13:28:26;22.70;38.40
69677;DHT22;56914;51.058;9.326;2022-09-30T13:31:10;22.50;38.20
69677;DHT22;56914;51.058;9.326;2022-09-30T13:33:43;22.30;38.20
69677;DHT22;56914;51.058;9.326;2022-09-30T13:36:24;22.20;38.10
69677;DHT22;56914;51.058;9.326;2022-09-30T13:41:55;22.00;38.10
69677;DHT22;56914;51.058;9.326;2022-09-30T13:44:27;22.00;37.70
69677;DHT22;56914;51.058;9.326;2022-09-30T13:46:58;22.00;37.50
69677;DHT22;56914;51.058;9.326;2022-09-30T13:49:32;22.00;37.40
69677;DHT22;56914;51.058;9.326;2022-09-30T13:52:02;22.00;37.10
69677;DHT22;56914;51.058;9.326;2022-09-30T13:54:34;22.00;37.20
69677;DHT22;56914;51.058;9.326;2022-09-30T13:57:05;22.00;36.90
69677;DHT22;56914;51.058;9.326;2022-09-30T13:59:36;22.10;36.80
69677;DHT22;56914;51.058;9.326;2022-09-30T14:02:17;22.20;36.50
69677;DHT22;56914;51.058;9.326;2022-09-30T14:04:51;22.10;36.40
69677;DHT22;56914;51.058;9.326;2022-09-30T14:07:27;22.10;36.60
69677;DHT22;56914;51.058;9.326;2022-09-30T14:10:02;22.10;36.80
69677;DHT22;56914;51.058;9.326;2022-09-30T14:12:39;22.10;36.90
69677;DHT22;56914;51.058;9.326;2022-09-30T14:15:17;22.10;36.80
69677;DHT22;56914;51.058;9.326;2022-09-30T14:17:59;22.00;37.20
69677;DHT22;56914;51.058;9.326;2022-09-30T14:20:44;22.10;37.50
69677;DHT22;56914;51.058;9.326;2022-09-30T14:23:17;22.10;37.40
69677;DHT22;56914;51.058;9.326;2022-09-30T14:25:52;22.20;37.20
69677;DHT22;56914;51.058;9.326;2022-09-30T14:28:23;22.30;37.20
69677;DHT22;56914;51.058;9.326;2022-09-30T14:30:58;22.30;37.40
69677;DHT22;56914;51.058;9.326;2022-09-30T14:33:35;22.30;37.30
69677;DHT22;56914;51.058;9.326;2022-09-30T14:36:10;22.20;37.20
69677;DHT22;56914;51.058;9.326;2022-09-30T14:38:38;22.20;37.30
69677;DHT22;56914;51.058;9.326;2022-09-30T14:41:13;22.10;37.30
69677;DHT22;56914;51.058;9.326;2022-09-30T14:43:43;22.10;37.30
69677;DHT22;56914;51.058;9.326;2022-09-30T14:46:15;22.20;37.60
69677;DHT22;56914;51.058;9.326;2022-09-30T14:48:45;22.10;37.30
69677;DHT22;56914;51.058;9.326;2022-09-30T14:51:16;22.10;37.40
69677;DHT22;56914;51.058;9.326;2022-09-30T14:53:53;22.00;37.40
69677;DHT22;56914;51.058;9.326;2022-09-30T14:56:24;21.80;37.60
69677;DHT22;56914;51.058;9.326;2022-09-30T14:58:54;21.70;37.90
69677;DHT22;56914;51.058;9.326;2022-09-30T15:01:27;21.60;37.90
69677;DHT22;56914;51.058;9.326;2022-09-30T15:03:56;21.50;38.00
69677;DHT22;56914;51.058;9.326;2022-09-30T15:06:27;21.60;38.10
69677;DHT22;56914;51.058;9.326;2022-09-30T15:08:59;21.60;38.10
69677;DHT22;56914;51.058;9.326;2022-09-30T15:11:27;21.60;38.10
69677;DHT22;56914;51.058;9.326;2022-09-30T15:13:57;21.50;38.20
69677;DHT22;56914;51.058;9.326;2022-09-30T15:16:30;21.60;38.30
69677;DHT22;56914;51.058;9.326;2022-09-30T15:18:59;21.50;38.10
69677;DHT22;56914;51.058;9.326;2022-09-30T15:21:31;21.40;38.20
69677;DHT22;56914;51.058;9.326;2022-09-30T15:24:00;21.40;38.30
69677;DHT22;56914;51.058;9.326;2022-09-30T15:26:31;21.30;38.50
69677;DHT22;56914;51.058;9.326;2022-09-30T15:29:01;21.30;38.90
69677;DHT22;56914;51.058;9.326;2022-09-30T15:31:32;21.20;38.90
69677;DHT22;56914;51.058;9.326;2022-09-30T15:34:02;21.20;38.80
69677;DHT22;56914;51.058;9.326;2022-09-30T15:36:33;21.10;38.70
69677;DHT22;56914;51.058;9.326;2022-09-30T15:39:01;21.00;39.30
69677;DHT22;56914;51.058;9.326;2022-09-30T15:41:30;20.90;38.80
69677;DHT22;56914;51.058;9.326;2022-09-30T15:44:04;20.90;39.80
69677;DHT22;56914;51.058;9.326;2022-09-30T15:46:58;20.80;39.20
69677;DHT22;56914;51.058;9.326;2022-09-30T15:49:31;20.80;39.40
69677;DHT22;56914;51.058;9.326;2022-09-30T15:54:45;20.70;39.60
69677;DHT22;56914;51.058;9.326;2022-09-30T16:00:06;20.40;40.00
69677;DHT22;56914;51.058;9.326;2022-09-30T16:02:40;20.20;40.10
69677;DHT22;56914;51.058;9.326;2022-09-30T16:05:08;20.10;40.30
69677;DHT22;56914;51.058;9.326;2022-09-30T16:07:36;20.00;40.50
69677;DHT22;56914;51.058;9.326;2022-09-30T16:10:14;19.90;40.70
69677;DHT22;56914;51.058;9.326;2022-09-30T16:12:44;19.80;40.80
69677;DHT22;56914;51.058;9.326;2022-09-30T16:15:15;19.70;41.00
69677;DHT22;56914;51.058;9.326;2022-09-30T16:17:48;19.70;41.30
69677;DHT22;56914;51.058;9.326;2022-09-30T16:20:20;19.60;41.50
69677;DHT22;56914;51.058;9.326;2022-09-30T16:22:51;19.50;41.50
69677;DHT22;56914;51.058;9.326;2022-09-30T16:25:22;19.50;41.70
69677;DHT22;56914;51.058;9.326;2022-09-30T16:27:55;19.40;41.90
69677;DHT22;56914;51.058;9.326;2022-09-30T16:30:27;19.30;42.00
69677;DHT22;56914;51.058;9.326;2022-09-30T16:32:57;19.30;42.30
69677;DHT22;56914;51.058;9.326;2022-09-30T16:35:29;19.20;42.50
69677;DHT22;56914;51.058;9.326;2022-09-30T16:37:59;19.10;42.50
69677;DHT22;56914;51.058;9.326;2022-09-30T16:40:32;19.10;42.70
69677;DHT22;56914;51.058;9.326;2022-09-30T16:43:01;19.00;43.00
69677;DHT22;56914;51.058;9.326;2022-09-30T16:45:33;18.90;43.30
69677;DHT22;56914;51.058;9.326;2022-09-30T16:48:04;18.80;43.50